sensor_id;sensor_type;location;lat;lon;timestamp;pressure;altitude;pressure_sealevel;temperature;humidity
49583;BME280;36329;48.816;44.624;2023-05-21T00:01:05;101218;;;17.5;54.1
49583;BME280;36329;48.816;44.624;2023-05-21T00:04:07;101219;;;17.5;54.4
49583;BME280;36329;48.816;44.624;2023-05-21T00:07:09;101225;;;17.4;54.7
49583;BME280;36329;48.816;44.624;2023-05-21T00:10:11;101218;;;17.2;55.3
49583;BME280;36329;48.816;44.624;2023-05-21T00:13:13;101222;;;17.2;55.5
49583;BME280;36329;48.816;44.624;2023-05-21T00:16:15;101222;;;17.1;55.7
49583;BME280;36329;48.816;44.624;2023-05-21T00:19:18;101228;;;17.3;55.1
49583;BME280;36329;48.816;44.624;2023-05-21T00:22:20;101219;;;17.2;55.3
49583;BME280;36329;48.816;44.624;2023-05-21T00:25:22;101222;;;17.1;55.5
49583;BME280;36329;48.816;44.624;2023-05-21T00:28:24;101222;;;17.2;55.2
49583;BME280;36329;48.816;44.624;2023-05-21T00:31:26;101224;;;17.2;55.5
49583;BME280;36329;48.816;44.624;2023-05-21T00:34:28;101224;;;17.1;55.8
49583;BME280;36329;48.816;44.624;2023-05-21T00:37:30;101223;;;17.2;55.6
49583;BME280;36329;48.816;44.624;2023-05-21T00:40:32;101228;;;17.2;55.5
49583;BME280;36329;48.816;44.624;2023-05-21T00:43:35;101219;;;17.1;55.5
49583;BME280;36329;48.816;44.624;2023-05-21T00:46:36;101220;;;17.1;55.4
49583;BME280;36329;48.816;44.624;2023-05-21T00:49:38;101229;;;17.1;55.5
49583;BME280;36329;48.816;44.624;2023-05-21T00:52:42;101230;;;17;56
49583;BME280;36329;48.816;44.624;2023-05-21T00:55:44;101232;;;17;56.1
49583;BME280;36329;48.816;44.624;2023-05-21T00:58:47;101234;;;16.8;57.2
49583;BME280;36329;48.816;44.624;2023-05-21T01:01:50;101233;;;16.9;57
49583;BME280;36329;48.816;44.624;2023-05-21T01:04:53;101229;;;16.9;57.6
49583;BME280;36329;48.816;44.624;2023-05-21T01:07:56;101229;;;16.8;58.2
49583;BME280;36329;48.816;44.624;2023-05-21T01:11:00;101230;;;16.6;59.2
49583;BME280;36329;48.816;44.624;2023-05-21T01:14:04;101241;;;16.6;60.1
49583;BME280;36329;48.816;44.624;2023-05-21T01:17:06;101236;;;16.5;61.6
49583;BME280;36329;48.816;44.624;2023-05-21T01:20:09;101236;;;16.4;62.9
49583;BME280;36329;48.816;44.624;2023-05-21T01:23:11;101238;;;16.4;63.5
49583;BME280;36329;48.816;44.624;2023-05-21T01:26:14;101235;;;16.4;63.2
49583;BME280;36329;48.816;44.624;2023-05-21T01:29:15;101239;;;16.4;63.7
49583;BME280;36329;48.816;44.624;2023-05-21T01:32:23;101237;;;16.5;63
49583;BME280;36329;48.816;44.624;2023-05-21T01:35:30;101248;;;16.5;63
49583;BME280;36329;48.816;44.624;2023-05-21T01:38:36;101250;;;16.3;63.5
49583;BME280;36329;48.816;44.624;2023-05-21T01:41:44;101249;;;16.4;63.8
49583;BME280;36329;48.816;44.624;2023-05-21T01:44:48;101249;;;16.3;63.9
49583;BME280;36329;48.816;44.624;2023-05-21T01:48:01;101252;;;16.5;62.8
49583;BME280;36329;48.816;44.624;2023-05-21T01:51:11;101249;;;16.6;61.9
49583;BME280;36329;48.816;44.624;2023-05-21T01:54:19;101255;;;16.4;61.7
49583;BME280;36329;48.816;44.624;2023-05-21T01:57:21;101257;;;16.6;60.8
49583;BME280;36329;48.816;44.624;2023-05-21T02:00:24;101254;;;16.7;60.3
49583;BME280;36329;48.816;44.624;2023-05-21T02:03:27;101253;;;16.7;60.7
49583;BME280;36329;48.816;44.624;2023-05-21T02:06:28;101258;;;16.5;61.5
49583;BME280;36329;48.816;44.624;2023-05-21T02:09:30;101255;;;16.8;60.5
49583;BME280;36329;48.816;44.624;2023-05-21T02:12:32;101257;;;16.8;59.7
49583;BME280;36329;48.816;44.624;2023-05-21T02:15:34;101248;;;16.7;60
49583;BME280;36329;48.816;44.624;2023-05-21T02:18:37;101255;;;16.9;59.9
49583;BME280;36329;48.816;44.624;2023-05-21T02:21:39;101252;;;16.8;60
49583;BME280;36329;48.816;44.624;2023-05-21T02:24:41;101252;;;16.7;60.8
49583;BME280;36329;48.816;44.624;2023-05-21T02:27:43;101247;;;16.7;61.1
49583;BME280;36329;48.816;44.624;2023-05-21T02:30:45;101253;;;16.5;61.5
49583;BME280;36329;48.816;44.624;2023-05-21T02:33:46;101247;;;16.6;61.1
49583;BME280;36329;48.816;44.624;2023-05-21T02:36:48;101250;;;16.5;61.7
49583;BME280;36329;48.816;44.624;2023-05-21T02:39:50;101247;;;16.7;60.2
49583;BME280;36329;48.816;44.624;2023-05-21T02:42:52;101246;;;16.8;60.1
49583;BME280;36329;48.816;44.624;2023-05-21T02:45:54;101247;;;16.8;59.6
49583;BME280;36329;48.816;44.624;2023-05-21T02:48:56;101251;;;17;59.3
49583;BME280;36329;48.816;44.624;2023-05-21T02:51:58;101246;;;17;58.7
49583;BME280;36329;48.816;44.624;2023-05-21T02:55:00;101250;;;16.9;59
49583;BME280;36329;48.816;44.624;2023-05-21T02:58:03;101243;;;17;59.2
49583;BME280;36329;48.816;44.624;2023-05-21T03:01:05;101250;;;17;57.8
49583;BME280;36329;48.816;44.624;2023-05-21T03:04:07;101249;;;17;57.7
49583;BME280;36329;48.816;44.624;2023-05-21T03:07:09;101247;;;17;57.7
49583;BME280;36329;48.816;44.624;2023-05-21T03:10:11;101243;;;17;58.4
49583;BME280;36329;48.816;44.624;2023-05-21T03:13:13;101251;;;17;58.4
49583;BME280;36329;48.816;44.624;2023-05-21T03:16:15;101254;;;17.1;58.6
49583;BME280;36329;48.816;44.624;2023-05-21T03:19:17;101257;;;16.9;59.5
49583;BME280;36329;48.816;44.624;2023-05-21T03:22:19;101258;;;17;59.7
49583;BME280;36329;48.816;44.624;2023-05-21T03:25:21;101257;;;17.2;59.3
49583;BME280;36329;48.816;44.624;2023-05-21T03:28:23;101249;;;17.3;58.5
49583;BME280;36329;48.816;44.624;2023-05-21T03:31:25;101243;;;17.4;58.2
49583;BME280;36329;48.816;44.624;2023-05-21T03:34:27;101250;;;17.6;58
49583;BME280;36329;48.816;44.624;2023-05-21T03:37:29;101255;;;17.5;58.6
49583;BME280;36329;48.816;44.624;2023-05-21T03:40:31;101255;;;17.5;58.8
49583;BME280;36329;48.816;44.624;2023-05-21T03:43:33;101253;;;17.3;59.7
49583;BME280;36329;48.816;44.624;2023-05-21T03:46:35;101260;;;17.4;60.1
49583;BME280;36329;48.816;44.624;2023-05-21T03:49:37;101256;;;17.6;59.6
49583;BME280;36329;48.816;44.624;2023-05-21T03:52:39;101259;;;17.6;59.9
49583;BME280;36329;48.816;44.624;2023-05-21T03:55:41;101262;;;17.7;60.4
49583;BME280;36329;48.816;44.624;2023-05-21T03:58:43;101273;;;17.8;61.7
49583;BME280;36329;48.816;44.624;2023-05-21T04:01:45;101274;;;17.9;61
49583;BME280;36329;48.816;44.624;2023-05-21T04:04:47;101279;;;17.8;61
49583;BME280;36329;48.816;44.624;2023-05-21T04:07:49;101275;;;17.7;61.5
49583;BME280;36329;48.816;44.624;2023-05-21T04:10:51;101280;;;17.5;61.9
49583;BME280;36329;48.816;44.624;2023-05-21T04:13:53;101279;;;17.4;62.8
49583;BME280;36329;48.816;44.624;2023-05-21T04:16:55;101284;;;17.5;63.3
49583;BME280;36329;48.816;44.624;2023-05-21T04:19:57;101294;;;17.6;63.5
49583;BME280;36329;48.816;44.624;2023-05-21T04:22:59;101299;;;17.8;63.9
49583;BME280;36329;48.816;44.624;2023-05-21T04:26:01;101304;;;17.8;63.9
49583;BME280;36329;48.816;44.624;2023-05-21T04:29:03;101303;;;17.7;64.9
49583;BME280;36329;48.816;44.624;2023-05-21T04:32:05;101311;;;17.6;65.3
49583;BME280;36329;48.816;44.624;2023-05-21T04:35:07;101308;;;17.4;65.9
49583;BME280;36329;48.816;44.624;2023-05-21T04:38:09;101309;;;17.6;66.1
49583;BME280;36329;48.816;44.624;2023-05-21T04:41:12;101310;;;17.7;65.4
49583;BME280;36329;48.816;44.624;2023-05-21T04:44:14;101310;;;17.8;65.5
49583;BME280;36329;48.816;44.624;2023-05-21T04:47:16;101310;;;17.8;65.1
49583;BME280;36329;48.816;44.624;2023-05-21T04:50:19;101306;;;17.7;66
49583;BME280;36329;48.816;44.624;2023-05-21T04:53:21;101306;;;17.7;66.1
49583;BME280;36329;48.816;44.624;2023-05-21T04:56:23;101307;;;18;65
49583;BME280;36329;48.816;44.624;2023-05-21T04:59:26;101313;;;18;65
49583;BME280;36329;48.816;44.624;2023-05-21T05:02:27;101310;;;18;64.6
49583;BME280;36329;48.816;44.624;2023-05-21T05:05:29;101314;;;18.1;64.5
49583;BME280;36329;48.816;44.624;2023-05-21T05:08:31;101314;;;18.4;63.9
49583;BME280;36329;48.816;44.624;2023-05-21T05:11:33;101314;;;18.5;63
49583;BME280;36329;48.816;44.624;2023-05-21T05:14:35;101315;;;18.3;64
49583;BME280;36329;48.816;44.624;2023-05-21T05:17:37;101314;;;18.1;64.6
49583;BME280;36329;48.816;44.624;2023-05-21T05:20:39;101311;;;18.2;64.2
49583;BME280;36329;48.816;44.624;2023-05-21T05:23:41;101314;;;18.5;63.3
49583;BME280;36329;48.816;44.624;2023-05-21T05:26:43;101312;;;18.6;63
49583;BME280;36329;48.816;44.624;2023-05-21T05:29:46;101315;;;18.6;63.3
49583;BME280;36329;48.816;44.624;2023-05-21T05:32:48;101314;;;18.6;63.8
49583;BME280;36329;48.816;44.624;2023-05-21T05:35:50;101321;;;18.7;63.5
49583;BME280;36329;48.816;44.624;2023-05-21T05:38:52;101328;;;18.9;63
49583;BME280;36329;48.816;44.624;2023-05-21T05:41:54;101326;;;18.9;63.1
49583;BME280;36329;48.816;44.624;2023-05-21T05:44:56;101325;;;19;63.7
49583;BME280;36329;48.816;44.624;2023-05-21T05:47:58;101317;;;19.3;62.5
49583;BME280;36329;48.816;44.624;2023-05-21T05:51:00;101326;;;19.1;62.5
49583;BME280;36329;48.816;44.624;2023-05-21T05:54:02;101321;;;19;63.3
49583;BME280;36329;48.816;44.624;2023-05-21T05:57:04;101324;;;19.2;63.2
49583;BME280;36329;48.816;44.624;2023-05-21T06:00:08;101328;;;19.5;61.6
49583;BME280;36329;48.816;44.624;2023-05-21T06:03:10;101327;;;19.8;61.2
49583;BME280;36329;48.816;44.624;2023-05-21T06:06:12;101321;;;20;61.1
49583;BME280;36329;48.816;44.624;2023-05-21T06:09:14;101328;;;20.1;60
49583;BME280;36329;48.816;44.624;2023-05-21T06:12:17;101324;;;20.2;60.3
49583;BME280;36329;48.816;44.624;2023-05-21T06:15:19;101337;;;20.3;58.1
49583;BME280;36329;48.816;44.624;2023-05-21T06:18:21;101336;;;20.3;56.8
49583;BME280;36329;48.816;44.624;2023-05-21T06:21:23;101335;;;20.6;53.8
49583;BME280;36329;48.816;44.624;2023-05-21T06:24:25;101335;;;20.6;52.4
49583;BME280;36329;48.816;44.624;2023-05-21T06:27:27;101337;;;20.8;52.3
49583;BME280;36329;48.816;44.624;2023-05-21T06:30:29;101338;;;20.7;51.4
49583;BME280;36329;48.816;44.624;2023-05-21T06:33:32;101333;;;20.8;50.6
49583;BME280;36329;48.816;44.624;2023-05-21T06:36:34;101331;;;21;49.5
49583;BME280;36329;48.816;44.624;2023-05-21T06:39:36;101325;;;21.1;49.2
49583;BME280;36329;48.816;44.624;2023-05-21T06:42:38;101334;;;21;49.4
49583;BME280;36329;48.816;44.624;2023-05-21T06:45:40;101336;;;21.1;49.2
49583;BME280;36329;48.816;44.624;2023-05-21T06:48:43;101344;;;21.4;48.3
49583;BME280;36329;48.816;44.624;2023-05-21T06:51:45;101341;;;21.5;46.8
49583;BME280;36329;48.816;44.624;2023-05-21T06:54:47;101332;;;21.6;46.7
49583;BME280;36329;48.816;44.624;2023-05-21T06:57:48;101345;;;21.8;46.1
49583;BME280;36329;48.816;44.624;2023-05-21T07:00:51;101343;;;21.9;45.7
49583;BME280;36329;48.816;44.624;2023-05-21T07:03:53;101338;;;22.1;44.6
49583;BME280;36329;48.816;44.624;2023-05-21T07:06:55;101341;;;22.1;44.7
49583;BME280;36329;48.816;44.624;2023-05-21T07:09:57;101339;;;22;44.2
49583;BME280;36329;48.816;44.624;2023-05-21T07:12:59;101341;;;22.2;43.7
49583;BME280;36329;48.816;44.624;2023-05-21T07:16:01;101341;;;21.7;43.5
49583;BME280;36329;48.816;44.624;2023-05-21T07:19:03;101344;;;21.8;42.6
49583;BME280;36329;48.816;44.624;2023-05-21T07:22:06;101338;;;21.9;42.5
49583;BME280;36329;48.816;44.624;2023-05-21T07:25:08;101337;;;21.8;43.1
49583;BME280;36329;48.816;44.624;2023-05-21T07:28:10;101340;;;22;42.8
49583;BME280;36329;48.816;44.624;2023-05-21T07:31:12;101335;;;22;41.4
49583;BME280;36329;48.816;44.624;2023-05-21T07:34:14;101342;;;21.9;42.6
49583;BME280;36329;48.816;44.624;2023-05-21T07:37:16;101337;;;22;41.9
49583;BME280;36329;48.816;44.624;2023-05-21T07:40:18;101331;;;22.1;41.5
49583;BME280;36329;48.816;44.624;2023-05-21T07:43:22;101335;;;21.9;41.3
49583;BME280;36329;48.816;44.624;2023-05-21T07:46:24;101333;;;22;41.5
49583;BME280;36329;48.816;44.624;2023-05-21T07:49:26;101328;;;22.2;40.8
49583;BME280;36329;48.816;44.624;2023-05-21T07:52:28;101328;;;22.4;41.2
49583;BME280;36329;48.816;44.624;2023-05-21T07:55:30;101332;;;22.2;41.5
49583;BME280;36329;48.816;44.624;2023-05-21T07:58:32;101332;;;22.8;40.6
49583;BME280;36329;48.816;44.624;2023-05-21T08:01:34;101329;;;23.5;39.1
49583;BME280;36329;48.816;44.624;2023-05-21T08:04:37;101325;;;23.8;38.3
49583;BME280;36329;48.816;44.624;2023-05-21T08:07:39;101328;;;24;37.3
49583;BME280;36329;48.816;44.624;2023-05-21T08:10:41;101323;;;24.4;37
49583;BME280;36329;48.816;44.624;2023-05-21T08:13:43;101324;;;24.3;37.3
49583;BME280;36329;48.816;44.624;2023-05-21T08:16:45;101318;;;25;36.3
49583;BME280;36329;48.816;44.624;2023-05-21T08:19:47;101316;;;25.5;34.8
49583;BME280;36329;48.816;44.624;2023-05-21T08:22:49;101310;;;26;34.2
49583;BME280;36329;48.816;44.624;2023-05-21T08:25:51;101311;;;26.5;32.9
49583;BME280;36329;48.816;44.624;2023-05-21T08:28:54;101312;;;25.5;35.3
49583;BME280;36329;48.816;44.624;2023-05-21T08:31:55;101306;;;25.8;34.9
49583;BME280;36329;48.816;44.624;2023-05-21T08:34:57;101312;;;25.5;35.5
49583;BME280;36329;48.816;44.624;2023-05-21T08:37:59;101316;;;25.8;34.6
49583;BME280;36329;48.816;44.624;2023-05-21T08:41:05;101323;;;25;36.1
49583;BME280;36329;48.816;44.624;2023-05-21T08:44:11;101323;;;24.5;36.4
49583;BME280;36329;48.816;44.624;2023-05-21T08:47:15;101312;;;24.4;36.6
49583;BME280;36329;48.816;44.624;2023-05-21T08:50:20;101304;;;24.4;36.8
49583;BME280;36329;48.816;44.624;2023-05-21T08:53:24;101307;;;25;36.2
49583;BME280;36329;48.816;44.624;2023-05-21T08:56:26;101300;;;25.3;35.3
49583;BME280;36329;48.816;44.624;2023-05-21T08:59:29;101299;;;25.9;34.1
49583;BME280;36329;48.816;44.624;2023-05-21T09:02:33;101298;;;26.2;33.4
49583;BME280;36329;48.816;44.624;2023-05-21T09:05:37;101300;;;26;33.6
49583;BME280;36329;48.816;44.624;2023-05-21T09:08:42;101302;;;26.1;33.2
49583;BME280;36329;48.816;44.624;2023-05-21T09:11:45;101294;;;25.8;33.6
49583;BME280;36329;48.816;44.624;2023-05-21T09:14:48;101289;;;25.3;34.5
49583;BME280;36329;48.816;44.624;2023-05-21T09:17:50;101288;;;25.7;33.9
49583;BME280;36329;48.816;44.624;2023-05-21T09:20:52;101293;;;25.4;34.4
49583;BME280;36329;48.816;44.624;2023-05-21T09:23:55;101291;;;24.9;34.9
49583;BME280;36329;48.816;44.624;2023-05-21T09:26:57;101296;;;24.6;35.8
49583;BME280;36329;48.816;44.624;2023-05-21T09:30:00;101292;;;24.8;35.2
49583;BME280;36329;48.816;44.624;2023-05-21T09:33:02;101293;;;24.9;35.4
49583;BME280;36329;48.816;44.624;2023-05-21T09:36:06;101280;;;24.6;35.7
49583;BME280;36329;48.816;44.624;2023-05-21T09:39:08;101279;;;24.5;36
49583;BME280;36329;48.816;44.624;2023-05-21T09:42:10;101279;;;24.5;36.2
49583;BME280;36329;48.816;44.624;2023-05-21T09:45:16;101282;;;24.9;35.1
49583;BME280;36329;48.816;44.624;2023-05-21T09:48:33;101269;;;25.1;34.5
49583;BME280;36329;48.816;44.624;2023-05-21T09:51:37;101266;;;24.9;34.8
49583;BME280;36329;48.816;44.624;2023-05-21T09:54:39;101264;;;24.8;34.8
49583;BME280;36329;48.816;44.624;2023-05-21T09:57:41;101270;;;24.5;36.1
49583;BME280;36329;48.816;44.624;2023-05-21T10:00:43;101268;;;24.4;36.1
49583;BME280;36329;48.816;44.624;2023-05-21T10:03:47;101268;;;24.2;35.8
49583;BME280;36329;48.816;44.624;2023-05-21T10:06:51;101264;;;24.1;35.6
49583;BME280;36329;48.816;44.624;2023-05-21T10:09:54;101262;;;23.9;36.2
49583;BME280;36329;48.816;44.624;2023-05-21T10:12:59;101259;;;23.6;37.1
49583;BME280;36329;48.816;44.624;2023-05-21T10:16:04;101261;;;23.5;37.5
49583;BME280;36329;48.816;44.624;2023-05-21T10:19:06;101252;;;23.5;37.5
49583;BME280;36329;48.816;44.624;2023-05-21T10:22:09;101249;;;23.5;37.2
49583;BME280;36329;48.816;44.624;2023-05-21T10:25:12;101254;;;23.6;37.3
49583;BME280;36329;48.816;44.624;2023-05-21T10:28:15;101253;;;23.9;36.8
49583;BME280;36329;48.816;44.624;2023-05-21T10:31:18;101250;;;23.8;37.4
49583;BME280;36329;48.816;44.624;2023-05-21T10:34:22;101250;;;23.8;37.2
49583;BME280;36329;48.816;44.624;2023-05-21T10:37:24;101249;;;23.8;37.4
49583;BME280;36329;48.816;44.624;2023-05-21T10:40:27;101247;;;23.8;36.7
49583;BME280;36329;48.816;44.624;2023-05-21T10:43:45;101253;;;23.9;36.9
49583;BME280;36329;48.816;44.624;2023-05-21T10:47:00;101255;;;23.8;37
49583;BME280;36329;48.816;44.624;2023-05-21T10:50:15;101243;;;23.8;37.1
49583;BME280;36329;48.816;44.624;2023-05-21T10:53:31;101242;;;23.7;37
49583;BME280;36329;48.816;44.624;2023-05-21T10:56:38;101237;;;23.7;37.2
49583;BME280;36329;48.816;44.624;2023-05-21T10:59:45;101238;;;23.7;37.6
49583;BME280;36329;48.816;44.624;2023-05-21T11:02:48;101237;;;23.7;38
49583;BME280;36329;48.816;44.624;2023-05-21T11:05:51;101235;;;23.6;37.9
49583;BME280;36329;48.816;44.624;2023-05-21T11:08:54;101234;;;23.6;38
49583;BME280;36329;48.816;44.624;2023-05-21T11:11:57;101226;;;23.5;37.4
49583;BME280;36329;48.816;44.624;2023-05-21T11:14:59;101231;;;23.6;37.3
49583;BME280;36329;48.816;44.624;2023-05-21T11:18:01;101229;;;23.7;36.7
49583;BME280;36329;48.816;44.624;2023-05-21T11:21:04;101230;;;23.7;36.4
49583;BME280;36329;48.816;44.624;2023-05-21T11:24:07;101225;;;23.8;36
49583;BME280;36329;48.816;44.624;2023-05-21T11:27:09;101223;;;23.8;35.6
49583;BME280;36329;48.816;44.624;2023-05-21T11:30:15;101223;;;24;35.7
49583;BME280;36329;48.816;44.624;2023-05-21T11:33:18;101228;;;24;35.5
49583;BME280;36329;48.816;44.624;2023-05-21T11:36:20;101229;;;24;35.3
49583;BME280;36329;48.816;44.624;2023-05-21T11:39:24;101228;;;23.9;35.8
49583;BME280;36329;48.816;44.624;2023-05-21T11:42:27;101235;;;23.9;35.8
49583;BME280;36329;48.816;44.624;2023-05-21T11:45:31;101230;;;24.1;35.5
49583;BME280;36329;48.816;44.624;2023-05-21T11:48:35;101228;;;24.2;35.4
49583;BME280;36329;48.816;44.624;2023-05-21T11:51:39;101222;;;24.3;35.4
49583;BME280;36329;48.816;44.624;2023-05-21T11:54:42;101217;;;24.2;35.5
49583;BME280;36329;48.816;44.624;2023-05-21T11:57:45;101213;;;24.2;35.2
49583;BME280;36329;48.816;44.624;2023-05-21T12:00:49;101211;;;24.2;35.2
49583;BME280;36329;48.816;44.624;2023-05-21T12:03:51;101210;;;24.2;36
49583;BME280;36329;48.816;44.624;2023-05-21T12:06:54;101200;;;24.4;34.9
49583;BME280;36329;48.816;44.624;2023-05-21T12:09:56;101199;;;24.4;35.2
49583;BME280;36329;48.816;44.624;2023-05-21T12:12:58;101193;;;24.5;35.1
49583;BME280;36329;48.816;44.624;2023-05-21T12:16:01;101187;;;24.7;35.5
49583;BME280;36329;48.816;44.624;2023-05-21T12:19:04;101193;;;24.7;35.1
49583;BME280;36329;48.816;44.624;2023-05-21T12:22:06;101195;;;24.7;35.2
49583;BME280;36329;48.816;44.624;2023-05-21T12:25:09;101189;;;24.6;35.4
49583;BME280;36329;48.816;44.624;2023-05-21T12:28:11;101197;;;24.5;34.9
49583;BME280;36329;48.816;44.624;2023-05-21T12:31:14;101190;;;24.3;34.9
49583;BME280;36329;48.816;44.624;2023-05-21T12:34:36;101184;;;24.4;35.4
49583;BME280;36329;48.816;44.624;2023-05-21T12:37:39;101193;;;23.7;37.3
49583;BME280;36329;48.816;44.624;2023-05-21T12:40:41;101192;;;23.2;38.9
49583;BME280;36329;48.816;44.624;2023-05-21T12:43:43;101190;;;23.1;39.3
49583;BME280;36329;48.816;44.624;2023-05-21T12:46:45;101190;;;23.3;38.8
49583;BME280;36329;48.816;44.624;2023-05-21T12:49:47;101193;;;23.4;37.9
49583;BME280;36329;48.816;44.624;2023-05-21T12:52:53;101185;;;23.3;38.6
49583;BME280;36329;48.816;44.624;2023-05-21T12:55:54;101194;;;23.3;39
49583;BME280;36329;48.816;44.624;2023-05-21T12:58:57;101181;;;23.5;39.1
49583;BME280;36329;48.816;44.624;2023-05-21T13:01:59;101176;;;23.5;39.2
49583;BME280;36329;48.816;44.624;2023-05-21T13:05:02;101177;;;23.6;38.5
49583;BME280;36329;48.816;44.624;2023-05-21T13:08:09;101167;;;23.4;39.2
49583;BME280;36329;48.816;44.624;2023-05-21T13:11:11;101171;;;23.5;39.3
49583;BME280;36329;48.816;44.624;2023-05-21T13:14:13;101158;;;23.5;39.2
49583;BME280;36329;48.816;44.624;2023-05-21T13:17:15;101157;;;23.7;38.1
49583;BME280;36329;48.816;44.624;2023-05-21T13:20:18;101148;;;23.4;38.1
49583;BME280;36329;48.816;44.624;2023-05-21T13:23:20;101152;;;23.3;38.5
49583;BME280;36329;48.816;44.624;2023-05-21T13:26:22;101157;;;23.3;38.4
49583;BME280;36329;48.816;44.624;2023-05-21T13:29:24;101157;;;23.3;38.6
49583;BME280;36329;48.816;44.624;2023-05-21T13:32:26;101162;;;23.4;38.4
49583;BME280;36329;48.816;44.624;2023-05-21T13:35:28;101158;;;23.5;38.1
49583;BME280;36329;48.816;44.624;2023-05-21T13:38:30;101152;;;23.5;37.8
49583;BME280;36329;48.816;44.624;2023-05-21T13:41:33;101149;;;23.6;37.9
49583;BME280;36329;48.816;44.624;2023-05-21T13:44:35;101149;;;23.7;37.2
49583;BME280;36329;48.816;44.624;2023-05-21T13:47:37;101148;;;23.6;37.8
49583;BME280;36329;48.816;44.624;2023-05-21T13:50:40;101155;;;23.5;38.5
49583;BME280;36329;48.816;44.624;2023-05-21T13:53:42;101151;;;23.5;38.4
49583;BME280;36329;48.816;44.624;2023-05-21T13:56:44;101152;;;23.7;37.4
49583;BME280;36329;48.816;44.624;2023-05-21T13:59:46;101155;;;23.3;37.7
49583;BME280;36329;48.816;44.624;2023-05-21T14:02:48;101151;;;23.6;37.6
49583;BME280;36329;48.816;44.624;2023-05-21T14:05:50;101145;;;23.7;37.2
49583;BME280;36329;48.816;44.624;2023-05-21T14:08:52;101137;;;23.6;37.4
49583;BME280;36329;48.816;44.624;2023-05-21T14:11:54;101136;;;23.6;36.9
49583;BME280;36329;48.816;44.624;2023-05-21T14:14:56;101136;;;23.5;36.8
49583;BME280;36329;48.816;44.624;2023-05-21T14:17:58;101137;;;23.4;35.8
49583;BME280;36329;48.816;44.624;2023-05-21T14:21:00;101135;;;23.4;35.5
49583;BME280;36329;48.816;44.624;2023-05-21T14:24:02;101126;;;23.4;34.8
49583;BME280;36329;48.816;44.624;2023-05-21T14:27:04;101129;;;23.5;35.2
49583;BME280;36329;48.816;44.624;2023-05-21T14:30:07;101128;;;23.6;35.4
49583;BME280;36329;48.816;44.624;2023-05-21T14:33:09;101130;;;23.5;35.6
49583;BME280;36329;48.816;44.624;2023-05-21T14:36:11;101129;;;23.4;36.3
49583;BME280;36329;48.816;44.624;2023-05-21T14:39:13;101131;;;23.2;37
49583;BME280;36329;48.816;44.624;2023-05-21T14:42:15;101138;;;23.1;37.3
49583;BME280;36329;48.816;44.624;2023-05-21T14:45:17;101151;;;22.8;38.2
49583;BME280;36329;48.816;44.624;2023-05-21T14:48:19;101135;;;22.7;38.5
49583;BME280;36329;48.816;44.624;2023-05-21T14:51:21;101140;;;22.8;38.7
49583;BME280;36329;48.816;44.624;2023-05-21T14:54:23;101140;;;22.8;38.5
49583;BME280;36329;48.816;44.624;2023-05-21T14:57:25;101141;;;22.7;38.5
49583;BME280;36329;48.816;44.624;2023-05-21T15:00:27;101139;;;22.6;38.8
49583;BME280;36329;48.816;44.624;2023-05-21T15:03:29;101142;;;22.7;38.5
49583;BME280;36329;48.816;44.624;2023-05-21T15:06:31;101135;;;22.9;38.5
49583;BME280;36329;48.816;44.624;2023-05-21T15:09:34;101131;;;23;38.1
49583;BME280;36329;48.816;44.624;2023-05-21T15:12:36;101123;;;22.8;38.5
49583;BME280;36329;48.816;44.624;2023-05-21T15:15:38;101125;;;22.6;38.3
49583;BME280;36329;48.816;44.624;2023-05-21T15:18:40;101125;;;22.6;38.4
49583;BME280;36329;48.816;44.624;2023-05-21T15:21:42;101133;;;22.7;38.7
49583;BME280;36329;48.816;44.624;2023-05-21T15:24:44;101133;;;22.7;38.2
49583;BME280;36329;48.816;44.624;2023-05-21T15:27:45;101130;;;22.6;38.5
49583;BME280;36329;48.816;44.624;2023-05-21T15:30:47;101136;;;22.8;38.5
49583;BME280;36329;48.816;44.624;2023-05-21T15:33:49;101128;;;22.7;38.7
49583;BME280;36329;48.816;44.624;2023-05-21T15:36:51;101135;;;22.8;38.9
49583;BME280;36329;48.816;44.624;2023-05-21T15:39:53;101129;;;22.5;39.1
49583;BME280;36329;48.816;44.624;2023-05-21T15:42:55;101127;;;22.5;39.3
49583;BME280;36329;48.816;44.624;2023-05-21T15:45:57;101123;;;22.6;39.3
49583;BME280;36329;48.816;44.624;2023-05-21T15:49:00;101120;;;22.5;39.1
49583;BME280;36329;48.816;44.624;2023-05-21T15:52:01;101124;;;22.4;39.3
49583;BME280;36329;48.816;44.624;2023-05-21T15:55:04;101121;;;22.4;39.4
49583;BME280;36329;48.816;44.624;2023-05-21T15:58:07;101120;;;22.4;39.6
49583;BME280;36329;48.816;44.624;2023-05-21T16:01:09;101124;;;22.3;39.7
49583;BME280;36329;48.816;44.624;2023-05-21T16:04:11;101130;;;22.2;39.9
49583;BME280;36329;48.816;44.624;2023-05-21T16:07:13;101124;;;22.3;39.8
49583;BME280;36329;48.816;44.624;2023-05-21T16:10:15;101127;;;22.2;39.9
49583;BME280;36329;48.816;44.624;2023-05-21T16:13:17;101127;;;22.2;40.1
49583;BME280;36329;48.816;44.624;2023-05-21T16:16:20;101124;;;22.3;40.2
49583;BME280;36329;48.816;44.624;2023-05-21T16:19:22;101126;;;22.2;40.1
49583;BME280;36329;48.816;44.624;2023-05-21T16:22:24;101123;;;22.2;40.4
49583;BME280;36329;48.816;44.624;2023-05-21T16:25:27;101130;;;22.2;40.3
49583;BME280;36329;48.816;44.624;2023-05-21T16:28:29;101124;;;22.3;40.4
49583;BME280;36329;48.816;44.624;2023-05-21T16:31:31;101125;;;22.3;40.8
49583;BME280;36329;48.816;44.624;2023-05-21T16:34:33;101121;;;22.3;40.6
49583;BME280;36329;48.816;44.624;2023-05-21T16:37:35;101124;;;22.2;40.5
49583;BME280;36329;48.816;44.624;2023-05-21T16:40:36;101126;;;22.3;40.8
49583;BME280;36329;48.816;44.624;2023-05-21T16:43:39;101124;;;22.4;41.1
49583;BME280;36329;48.816;44.624;2023-05-21T16:46:41;101125;;;22.4;40.5
49583;BME280;36329;48.816;44.624;2023-05-21T16:49:43;101122;;;22.3;42
49583;BME280;36329;48.816;44.624;2023-05-21T16:52:45;101127;;;22.3;41.5